Aérodrome :
LOGIN :

S'inscrire | Disclaimer

   EN    FR    IT 

 










Légende :    VFR   VFR Marginal   IFR   IFR Intensif   IFR Très Intensif
Visi : 
Plafond : 
>= 8 km
>= 3000ft
5 à 8 km
1000 à 3000 ft
1500m à 5 km
500 à 1000 ft
800 à 1500m
200 à 500 ft
< 800m
< 200 ft
Symboles :   Orages  Brouillard  Fortes neiges  Fortes précipitations  Vent > 20 kt
SIGMETs :   Divers  Orages  Givrage  Turbulence  Onde Orograph.  Cendres Volcan.







- Altitude de l'aérodrome : 20 ft


EBFN - Koksijde

DERNIER METAR :
  • 210825Z AUTO 06006KT 8000 FEW071/// SCT140/// BKN170/// 18/14 Q1016 BLU

METARs EXPIRÉS :
  • 210755Z AUTO 02003KT 5000 BR OVC075/// 16/14 Q1016 WHT
  • 210742Z AUTO 01004KT 3400 BR OVC074/// 15/14 Q1016 YLO
  • 210733Z AUTO 01004KT 4300 -DZ OVC074/// 15/14 Q1016 GRN
  • 210725Z AUTO 01003KT 6000 -DZ OVC074/// 14/14 Q1016 WHT
  • 210721Z AUTO VRB01KT 4900 OVC072/// 14/13 Q1016 GRN
  • 210655Z AUTO 36003KT 5000 -RA OVC072/// 14/13 Q1016 WHT
  • 210643Z AUTO 02003KT 5000 OVC076/// 14/13 Q1016 WHT
  • 210625Z AUTO 05003KT 4200 BR OVC076/// 14/13 Q1016 GRN
  • 210555Z AUTO 10003KT 4400 BR OVC079/// 13/13 Q1016 GRN
  • 210552Z AUTO 11003KT 4700 BR OVC079/// 13/13 Q1016 GRN

TAF TAF EBFN
Valide du 21 à 07h jusqu'au 21 à 16h UTC


210541Z 2107/2116 08005KT 6000 FEW020 SCT060
TEMPO 2107/2108 4000 BR
BECMG 2108/2109 9999
BECMG 2111/2113 03010KT
Pas de NOTAMs connus pour ce terrain.



MET'MAP, la Météo Aéronautique d'un coup d'oeil ! - Copyright ORBIFLY Décembre 2007 - Disclaimer

ORBIFLY MET'MAP TEAM :

Programmation & Développement : Alexandra Zaïnal
Conception & Développement : Baudouin d'Aumeries
Co-Programmation & Développement : Marc-Olivier Méhu
Soutien technique & logistique : Manuel Goepfert

Contact : metmap@orbifly.com




SOURCES & CREDITS :

   NOAA